VNKT/KTM METAR and TAF weather

Enter ICAO airport designator
Station Type Date Time Source
VNKT METAR 2019/02/20 17:50 UTC NOAA

VNKT 201750Z 07003KT 7000 FEW015 10/08 Q1023 NOSIG


Station Type Date Time Source
VNKT Decoded METAR 2019/02/20 17:50 UTC NOAA

Kathmandu Airport, Nepal (VNKT) 27-42N 085-22E 1337M
Feb 20, 2019 - 12:50 PM EST / 2019.02.20 1750 UTC
Wind: from the ENE (070 degrees) at 3 MPH (3 KT):0
Visibility: 4 mile(s):0
Sky conditions: mostly clear
Temperature: 50 F (10 C)
Dew Point: 46 F (8 C)
Relative Humidity: 87%
Pressure (altimeter): 30.21 in. Hg (1023 hPa)
ob: VNKT 201750Z 07003KT 7000 FEW015 10/08 Q1023 NOSIG
cycle: 18

Station Type Date Time Source
VNKT TAF 2019/02/20 18:39 UTC NOAA

TAF VNKT 201700Z 2018/2118 08003KT 6000 FEW015 SCT250
BECMG 2100/2102 00000KT 3000 BR FEW015 PROB40 2101/2103 1500 BR FEW010 SCT100
BECMG 2104/2105 14003KT 5000 HZ FEW015 SCT250
BECMG 2107/2108 25008KT 8000 FEW015 SCT030 PROB30 2109/2112 VRB10KT 5000 -TSRA FEW025CB BKN100
BECMG 2113/2114 VRB02KT 6000 FEW015 SCT100


Example: see airport list